sensor_id;sensor_type;location;lat;lon;timestamp;P1;durP1;ratioP1;P2;durP2;ratioP2
11305;SDS011;5708;50.660;6.778;2023-12-28T00:01:09;3.83;;;1.50;;
11305;SDS011;5708;50.660;6.778;2023-12-28T00:03:35;4.32;;;1.55;;
11305;SDS011;5708;50.660;6.778;2023-12-28T00:06:00;3.13;;;1.60;;
11305;SDS011;5708;50.660;6.778;2023-12-28T00:08:25;2.67;;;1.38;;
11305;SDS011;5708;50.660;6.778;2023-12-28T00:10:51;4.30;;;1.40;;
11305;SDS011;5708;50.660;6.778;2023-12-28T00:13:16;3.38;;;1.48;;
11305;SDS011;5708;50.660;6.778;2023-12-28T00:15:42;2.95;;;1.60;;
11305;SDS011;5708;50.660;6.778;2023-12-28T00:18:07;1.85;;;1.15;;
11305;SDS011;5708;50.660;6.778;2023-12-28T00:20:33;4.40;;;1.50;;
11305;SDS011;5708;50.660;6.778;2023-12-28T00:22:58;2.70;;;1.58;;
11305;SDS011;5708;50.660;6.778;2023-12-28T00:25:24;2.33;;;1.20;;
11305;SDS011;5708;50.660;6.778;2023-12-28T00:27:49;4.40;;;1.67;;
11305;SDS011;5708;50.660;6.778;2023-12-28T00:30:15;3.55;;;1.42;;
11305;SDS011;5708;50.660;6.778;2023-12-28T00:32:42;3.08;;;1.30;;
11305;SDS011;5708;50.660;6.778;2023-12-28T00:35:11;3.80;;;1.60;;
11305;SDS011;5708;50.660;6.778;2023-12-28T00:37:36;1.88;;;1.10;;
11305;SDS011;5708;50.660;6.778;2023-12-28T00:40:02;2.13;;;1.30;;
11305;SDS011;5708;50.660;6.778;2023-12-28T00:42:27;3.53;;;1.27;;
11305;SDS011;5708;50.660;6.778;2023-12-28T00:44:53;2.05;;;1.27;;
11305;SDS011;5708;50.660;6.778;2023-12-28T00:47:18;2.60;;;1.00;;
11305;SDS011;5708;50.660;6.778;2023-12-28T00:49:43;3.05;;;1.02;;
11305;SDS011;5708;50.660;6.778;2023-12-28T00:52:09;1.63;;;0.90;;
11305;SDS011;5708;50.660;6.778;2023-12-28T00:54:35;2.75;;;0.90;;
11305;SDS011;5708;50.660;6.778;2023-12-28T00:57:02;2.10;;;1.20;;
11305;SDS011;5708;50.660;6.778;2023-12-28T00:59:28;2.50;;;1.25;;
11305;SDS011;5708;50.660;6.778;2023-12-28T01:01:55;1.92;;;1.10;;
11305;SDS011;5708;50.660;6.778;2023-12-28T01:04:20;2.25;;;0.90;;
11305;SDS011;5708;50.660;6.778;2023-12-28T01:06:48;1.30;;;0.80;;
11305;SDS011;5708;50.660;6.778;2023-12-28T01:09:13;1.02;;;0.73;;
11305;SDS011;5708;50.660;6.778;2023-12-28T01:11:39;2.17;;;0.90;;
11305;SDS011;5708;50.660;6.778;2023-12-28T01:14:04;1.48;;;0.93;;
11305;SDS011;5708;50.660;6.778;2023-12-28T01:16:29;0.95;;;0.73;;
11305;SDS011;5708;50.660;6.778;2023-12-28T01:18:55;1.67;;;0.90;;
11305;SDS011;5708;50.660;6.778;2023-12-28T01:21:20;1.35;;;0.70;;
11305;SDS011;5708;50.660;6.778;2023-12-28T01:23:46;1.48;;;0.77;;
11305;SDS011;5708;50.660;6.778;2023-12-28T01:26:14;1.42;;;0.80;;
11305;SDS011;5708;50.660;6.778;2023-12-28T01:28:39;1.75;;;1.10;;
11305;SDS011;5708;50.660;6.778;2023-12-28T01:31:05;1.23;;;0.60;;
11305;SDS011;5708;50.660;6.778;2023-12-28T01:33:30;1.08;;;0.60;;
11305;SDS011;5708;50.660;6.778;2023-12-28T01:35:56;0.95;;;0.55;;
11305;SDS011;5708;50.660;6.778;2023-12-28T01:38:21;0.75;;;0.65;;
11305;SDS011;5708;50.660;6.778;2023-12-28T01:40:47;1.85;;;0.70;;
11305;SDS011;5708;50.660;6.778;2023-12-28T01:43:12;1.13;;;0.77;;
11305;SDS011;5708;50.660;6.778;2023-12-28T01:45:37;1.02;;;0.55;;
11305;SDS011;5708;50.660;6.778;2023-12-28T01:48:03;1.63;;;0.80;;
11305;SDS011;5708;50.660;6.778;2023-12-28T01:50:29;1.45;;;0.70;;
11305;SDS011;5708;50.660;6.778;2023-12-28T01:52:56;2.60;;;0.70;;
11305;SDS011;5708;50.660;6.778;2023-12-28T01:55:24;0.80;;;0.57;;
11305;SDS011;5708;50.660;6.778;2023-12-28T01:57:50;1.50;;;0.98;;
11305;SDS011;5708;50.660;6.778;2023-12-28T02:00:15;1.50;;;0.80;;
11305;SDS011;5708;50.660;6.778;2023-12-28T02:02:40;1.58;;;0.93;;
11305;SDS011;5708;50.660;6.778;2023-12-28T02:05:07;2.55;;;1.00;;
11305;SDS011;5708;50.660;6.778;2023-12-28T02:07:32;1.77;;;0.98;;
11305;SDS011;5708;50.660;6.778;2023-12-28T02:09:59;2.70;;;1.30;;
11305;SDS011;5708;50.660;6.778;2023-12-28T02:12:24;3.00;;;1.20;;
11305;SDS011;5708;50.660;6.778;2023-12-28T02:14:50;3.05;;;1.05;;
11305;SDS011;5708;50.660;6.778;2023-12-28T02:17:16;2.70;;;0.95;;
11305;SDS011;5708;50.660;6.778;2023-12-28T02:19:50;3.08;;;1.30;;
11305;SDS011;5708;50.660;6.778;2023-12-28T02:22:18;2.35;;;1.30;;
11305;SDS011;5708;50.660;6.778;2023-12-28T02:27:31;2.45;;;1.40;;
11305;SDS011;5708;50.660;6.778;2023-12-28T02:30:18;2.80;;;1.48;;
11305;SDS011;5708;50.660;6.778;2023-12-28T02:38:30;4.78;;;1.70;;
11305;SDS011;5708;50.660;6.778;2023-12-28T02:40:57;2.00;;;1.30;;
11305;SDS011;5708;50.660;6.778;2023-12-28T02:43:23;4.07;;;1.50;;
11305;SDS011;5708;50.660;6.778;2023-12-28T02:45:49;2.30;;;1.30;;
11305;SDS011;5708;50.660;6.778;2023-12-28T02:48:14;2.47;;;1.30;;
11305;SDS011;5708;50.660;6.778;2023-12-28T02:50:39;3.03;;;1.58;;
11305;SDS011;5708;50.660;6.778;2023-12-28T02:53:05;4.00;;;1.50;;
11305;SDS011;5708;50.660;6.778;2023-12-28T02:55:30;4.90;;;1.88;;
11305;SDS011;5708;50.660;6.778;2023-12-28T02:57:56;3.35;;;1.70;;
11305;SDS011;5708;50.660;6.778;2023-12-28T03:00:25;2.97;;;1.55;;
11305;SDS011;5708;50.660;6.778;2023-12-28T03:02:51;3.20;;;1.70;;
11305;SDS011;5708;50.660;6.778;2023-12-28T03:05:16;4.82;;;1.67;;
11305;SDS011;5708;50.660;6.778;2023-12-28T03:07:42;4.28;;;1.70;;
11305;SDS011;5708;50.660;6.778;2023-12-28T03:10:08;3.85;;;1.70;;
11305;SDS011;5708;50.660;6.778;2023-12-28T03:12:33;4.05;;;1.60;;
11305;SDS011;5708;50.660;6.778;2023-12-28T03:14:59;5.03;;;1.80;;
11305;SDS011;5708;50.660;6.778;2023-12-28T03:17:24;4.22;;;2.15;;
11305;SDS011;5708;50.660;6.778;2023-12-28T03:19:50;4.65;;;1.80;;
11305;SDS011;5708;50.660;6.778;2023-12-28T03:22:15;3.95;;;1.63;;
11305;SDS011;5708;50.660;6.778;2023-12-28T03:24:42;3.53;;;1.90;;
11305;SDS011;5708;50.660;6.778;2023-12-28T03:27:07;6.88;;;1.90;;
11305;SDS011;5708;50.660;6.778;2023-12-28T03:29:33;3.53;;;1.70;;
11305;SDS011;5708;50.660;6.778;2023-12-28T03:31:59;5.45;;;1.83;;
11305;SDS011;5708;50.660;6.778;2023-12-28T03:34:24;4.07;;;1.60;;
11305;SDS011;5708;50.660;6.778;2023-12-28T03:36:51;3.17;;;1.77;;
11305;SDS011;5708;50.660;6.778;2023-12-28T03:39:17;3.88;;;2.00;;
11305;SDS011;5708;50.660;6.778;2023-12-28T03:41:42;5.05;;;2.00;;
11305;SDS011;5708;50.660;6.778;2023-12-28T03:44:08;4.15;;;1.70;;
11305;SDS011;5708;50.660;6.778;2023-12-28T03:46:33;6.07;;;1.80;;
11305;SDS011;5708;50.660;6.778;2023-12-28T03:48:58;6.60;;;2.15;;
11305;SDS011;5708;50.660;6.778;2023-12-28T03:51:24;4.57;;;1.70;;
11305;SDS011;5708;50.660;6.778;2023-12-28T03:53:49;4.57;;;1.73;;
11305;SDS011;5708;50.660;6.778;2023-12-28T03:56:21;3.95;;;1.70;;
11305;SDS011;5708;50.660;6.778;2023-12-28T03:58:48;6.50;;;2.13;;
11305;SDS011;5708;50.660;6.778;2023-12-28T04:01:13;4.20;;;2.25;;
11305;SDS011;5708;50.660;6.778;2023-12-28T04:03:39;4.53;;;1.98;;
11305;SDS011;5708;50.660;6.778;2023-12-28T04:06:04;4.03;;;1.63;;
11305;SDS011;5708;50.660;6.778;2023-12-28T04:08:30;6.65;;;1.90;;
11305;SDS011;5708;50.660;6.778;2023-12-28T04:10:55;3.42;;;1.73;;
11305;SDS011;5708;50.660;6.778;2023-12-28T04:13:21;3.97;;;1.98;;
11305;SDS011;5708;50.660;6.778;2023-12-28T04:15:47;2.55;;;1.50;;
11305;SDS011;5708;50.660;6.778;2023-12-28T04:18:12;3.67;;;1.55;;
11305;SDS011;5708;50.660;6.778;2023-12-28T04:20:43;6.15;;;1.90;;
11305;SDS011;5708;50.660;6.778;2023-12-28T04:23:11;5.28;;;1.90;;
11305;SDS011;5708;50.660;6.778;2023-12-28T04:25:37;7.47;;;2.03;;
11305;SDS011;5708;50.660;6.778;2023-12-28T04:28:02;4.70;;;1.83;;
11305;SDS011;5708;50.660;6.778;2023-12-28T04:30:28;4.75;;;1.80;;
11305;SDS011;5708;50.660;6.778;2023-12-28T04:32:53;7.43;;;1.90;;
11305;SDS011;5708;50.660;6.778;2023-12-28T04:35:19;6.30;;;1.70;;
11305;SDS011;5708;50.660;6.778;2023-12-28T04:37:44;4.85;;;1.58;;
11305;SDS011;5708;50.660;6.778;2023-12-28T04:40:10;7.10;;;1.73;;
11305;SDS011;5708;50.660;6.778;2023-12-28T04:42:35;5.22;;;1.90;;
11305;SDS011;5708;50.660;6.778;2023-12-28T04:45:01;4.40;;;1.95;;
11305;SDS011;5708;50.660;6.778;2023-12-28T04:47:26;6.32;;;1.83;;
11305;SDS011;5708;50.660;6.778;2023-12-28T04:49:51;5.63;;;2.00;;
11305;SDS011;5708;50.660;6.778;2023-12-28T04:52:17;4.85;;;1.80;;
11305;SDS011;5708;50.660;6.778;2023-12-28T04:54:42;3.40;;;1.90;;
11305;SDS011;5708;50.660;6.778;2023-12-28T04:57:08;6.20;;;1.70;;
11305;SDS011;5708;50.660;6.778;2023-12-28T04:59:37;7.05;;;2.00;;
11305;SDS011;5708;50.660;6.778;2023-12-28T05:02:06;5.47;;;2.30;;
11305;SDS011;5708;50.660;6.778;2023-12-28T05:04:32;4.28;;;2.00;;
11305;SDS011;5708;50.660;6.778;2023-12-28T05:06:57;3.90;;;1.80;;
11305;SDS011;5708;50.660;6.778;2023-12-28T05:09:22;6.72;;;2.15;;
11305;SDS011;5708;50.660;6.778;2023-12-28T05:11:48;4.03;;;1.77;;
11305;SDS011;5708;50.660;6.778;2023-12-28T05:14:13;5.13;;;2.08;;
11305;SDS011;5708;50.660;6.778;2023-12-28T05:16:39;5.03;;;1.70;;
11305;SDS011;5708;50.660;6.778;2023-12-28T05:19:04;5.15;;;1.60;;
11305;SDS011;5708;50.660;6.778;2023-12-28T05:21:29;6.65;;;2.53;;
11305;SDS011;5708;50.660;6.778;2023-12-28T05:23:55;4.78;;;1.90;;
11305;SDS011;5708;50.660;6.778;2023-12-28T05:26:20;5.10;;;1.92;;
11305;SDS011;5708;50.660;6.778;2023-12-28T05:28:46;4.20;;;1.90;;
11305;SDS011;5708;50.660;6.778;2023-12-28T05:31:11;5.35;;;1.92;;
11305;SDS011;5708;50.660;6.778;2023-12-28T05:33:38;6.85;;;2.10;;
11305;SDS011;5708;50.660;6.778;2023-12-28T05:36:03;5.50;;;2.10;;
11305;SDS011;5708;50.660;6.778;2023-12-28T05:38:29;7.53;;;1.80;;
11305;SDS011;5708;50.660;6.778;2023-12-28T05:40:55;5.07;;;1.90;;
11305;SDS011;5708;50.660;6.778;2023-12-28T05:43:20;4.05;;;1.60;;
11305;SDS011;5708;50.660;6.778;2023-12-28T05:45:45;3.45;;;1.65;;
11305;SDS011;5708;50.660;6.778;2023-12-28T05:48:11;5.53;;;1.88;;
11305;SDS011;5708;50.660;6.778;2023-12-28T05:50:36;8.15;;;2.03;;
11305;SDS011;5708;50.660;6.778;2023-12-28T05:53:02;7.03;;;1.75;;
11305;SDS011;5708;50.660;6.778;2023-12-28T05:55:27;5.90;;;1.60;;
11305;SDS011;5708;50.660;6.778;2023-12-28T05:57:53;4.85;;;1.52;;
11305;SDS011;5708;50.660;6.778;2023-12-28T06:00:18;6.32;;;1.92;;
11305;SDS011;5708;50.660;6.778;2023-12-28T06:02:44;5.63;;;1.90;;
11305;SDS011;5708;50.660;6.778;2023-12-28T06:05:11;6.85;;;1.75;;
11305;SDS011;5708;50.660;6.778;2023-12-28T06:07:36;3.83;;;1.58;;
11305;SDS011;5708;50.660;6.778;2023-12-28T06:10:02;4.47;;;1.52;;
11305;SDS011;5708;50.660;6.778;2023-12-28T06:12:27;5.38;;;1.58;;
11305;SDS011;5708;50.660;6.778;2023-12-28T06:14:53;3.17;;;1.42;;
11305;SDS011;5708;50.660;6.778;2023-12-28T06:17:18;3.47;;;1.60;;
11305;SDS011;5708;50.660;6.778;2023-12-28T06:19:44;6.75;;;1.70;;
11305;SDS011;5708;50.660;6.778;2023-12-28T06:22:09;5.05;;;1.52;;
11305;SDS011;5708;50.660;6.778;2023-12-28T06:24:38;6.57;;;1.70;;
11305;SDS011;5708;50.660;6.778;2023-12-28T06:27:06;3.78;;;1.52;;
11305;SDS011;5708;50.660;6.778;2023-12-28T06:29:32;4.32;;;1.40;;
11305;SDS011;5708;50.660;6.778;2023-12-28T06:31:57;4.85;;;1.60;;
11305;SDS011;5708;50.660;6.778;2023-12-28T06:34:22;3.47;;;1.77;;
11305;SDS011;5708;50.660;6.778;2023-12-28T06:36:48;5.78;;;1.65;;
11305;SDS011;5708;50.660;6.778;2023-12-28T06:39:13;5.30;;;1.75;;
11305;SDS011;5708;50.660;6.778;2023-12-28T06:41:38;7.30;;;1.98;;
11305;SDS011;5708;50.660;6.778;2023-12-28T06:44:04;8.80;;;1.88;;
11305;SDS011;5708;50.660;6.778;2023-12-28T06:46:29;4.03;;;1.70;;
11305;SDS011;5708;50.660;6.778;2023-12-28T06:48:55;5.13;;;1.88;;
11305;SDS011;5708;50.660;6.778;2023-12-28T06:51:20;4.50;;;1.70;;
11305;SDS011;5708;50.660;6.778;2023-12-28T06:53:46;4.03;;;1.45;;
11305;SDS011;5708;50.660;6.778;2023-12-28T06:56:13;6.05;;;1.48;;
11305;SDS011;5708;50.660;6.778;2023-12-28T06:58:39;4.63;;;2.22;;
11305;SDS011;5708;50.660;6.778;2023-12-28T07:01:04;6.90;;;1.83;;
11305;SDS011;5708;50.660;6.778;2023-12-28T07:03:30;4.68;;;1.77;;
11305;SDS011;5708;50.660;6.778;2023-12-28T07:05:58;7.75;;;1.98;;
11305;SDS011;5708;50.660;6.778;2023-12-28T07:08:23;5.80;;;1.92;;
11305;SDS011;5708;50.660;6.778;2023-12-28T07:10:49;7.43;;;1.85;;
11305;SDS011;5708;50.660;6.778;2023-12-28T07:13:14;3.65;;;1.35;;
11305;SDS011;5708;50.660;6.778;2023-12-28T07:15:39;7.22;;;1.88;;
11305;SDS011;5708;50.660;6.778;2023-12-28T07:18:05;6.90;;;2.03;;
11305;SDS011;5708;50.660;6.778;2023-12-28T07:20:30;7.60;;;1.95;;
11305;SDS011;5708;50.660;6.778;2023-12-28T07:22:56;7.03;;;1.70;;
11305;SDS011;5708;50.660;6.778;2023-12-28T07:25:21;8.02;;;1.80;;
11305;SDS011;5708;50.660;6.778;2023-12-28T07:27:47;5.72;;;1.73;;
11305;SDS011;5708;50.660;6.778;2023-12-28T07:30:12;7.38;;;1.70;;
11305;SDS011;5708;50.660;6.778;2023-12-28T07:32:38;9.13;;;2.55;;
11305;SDS011;5708;50.660;6.778;2023-12-28T07:35:03;5.35;;;1.83;;
11305;SDS011;5708;50.660;6.778;2023-12-28T07:37:29;7.80;;;1.92;;
11305;SDS011;5708;50.660;6.778;2023-12-28T07:39:54;7.38;;;1.80;;
11305;SDS011;5708;50.660;6.778;2023-12-28T07:42:20;7.47;;;1.67;;
11305;SDS011;5708;50.660;6.778;2023-12-28T07:44:45;6.70;;;1.70;;
11305;SDS011;5708;50.660;6.778;2023-12-28T07:47:10;6.40;;;1.40;;
11305;SDS011;5708;50.660;6.778;2023-12-28T07:49:37;6.43;;;1.45;;
11305;SDS011;5708;50.660;6.778;2023-12-28T07:52:03;7.70;;;1.98;;
11305;SDS011;5708;50.660;6.778;2023-12-28T07:54:28;8.25;;;1.90;;
11305;SDS011;5708;50.660;6.778;2023-12-28T07:56:54;7.20;;;1.77;;
11305;SDS011;5708;50.660;6.778;2023-12-28T07:59:19;9.18;;;1.70;;
11305;SDS011;5708;50.660;6.778;2023-12-28T08:01:44;7.40;;;1.45;;
11305;SDS011;5708;50.660;6.778;2023-12-28T08:04:10;7.57;;;1.55;;
11305;SDS011;5708;50.660;6.778;2023-12-28T08:06:36;5.57;;;1.50;;
11305;SDS011;5708;50.660;6.778;2023-12-28T08:09:01;7.15;;;1.73;;
11305;SDS011;5708;50.660;6.778;2023-12-28T08:11:30;10.27;;;1.77;;
11305;SDS011;5708;50.660;6.778;2023-12-28T08:13:55;7.65;;;2.17;;
11305;SDS011;5708;50.660;6.778;2023-12-28T08:16:21;7.97;;;1.77;;
11305;SDS011;5708;50.660;6.778;2023-12-28T08:18:46;9.00;;;1.73;;
11305;SDS011;5708;50.660;6.778;2023-12-28T08:21:11;6.82;;;1.60;;
11305;SDS011;5708;50.660;6.778;2023-12-28T08:23:37;4.10;;;1.20;;
11305;SDS011;5708;50.660;6.778;2023-12-28T08:26:02;5.47;;;1.60;;
11305;SDS011;5708;50.660;6.778;2023-12-28T08:28:28;8.50;;;1.80;;
11305;SDS011;5708;50.660;6.778;2023-12-28T08:30:53;7.07;;;1.52;;
11305;SDS011;5708;50.660;6.778;2023-12-28T08:33:20;4.93;;;1.48;;
11305;SDS011;5708;50.660;6.778;2023-12-28T08:35:46;6.70;;;1.70;;
11305;SDS011;5708;50.660;6.778;2023-12-28T08:38:11;7.47;;;1.55;;
11305;SDS011;5708;50.660;6.778;2023-12-28T08:40:37;5.32;;;1.90;;
11305;SDS011;5708;50.660;6.778;2023-12-28T08:43:02;7.88;;;1.60;;
11305;SDS011;5708;50.660;6.778;2023-12-28T08:45:27;9.65;;;1.80;;
11305;SDS011;5708;50.660;6.778;2023-12-28T08:47:53;11.40;;;1.63;;
11305;SDS011;5708;50.660;6.778;2023-12-28T08:50:18;8.02;;;2.00;;
11305;SDS011;5708;50.660;6.778;2023-12-28T08:52:44;10.40;;;1.52;;
11305;SDS011;5708;50.660;6.778;2023-12-28T08:55:09;7.47;;;1.75;;
11305;SDS011;5708;50.660;6.778;2023-12-28T08:57:35;7.47;;;1.80;;
11305;SDS011;5708;50.660;6.778;2023-12-28T09:00:00;8.18;;;1.83;;
11305;SDS011;5708;50.660;6.778;2023-12-28T09:02:28;7.10;;;1.60;;
11305;SDS011;5708;50.660;6.778;2023-12-28T09:04:53;7.65;;;1.95;;
11305;SDS011;5708;50.660;6.778;2023-12-28T09:07:19;7.13;;;1.80;;
11305;SDS011;5708;50.660;6.778;2023-12-28T09:09:44;9.70;;;2.00;;
11305;SDS011;5708;50.660;6.778;2023-12-28T09:12:10;5.03;;;1.70;;
11305;SDS011;5708;50.660;6.778;2023-12-28T09:14:36;5.45;;;1.92;;
11305;SDS011;5708;50.660;6.778;2023-12-28T09:17:01;7.65;;;1.58;;
11305;SDS011;5708;50.660;6.778;2023-12-28T09:19:27;7.82;;;1.38;;
11305;SDS011;5708;50.660;6.778;2023-12-28T09:21:52;9.30;;;1.67;;
11305;SDS011;5708;50.660;6.778;2023-12-28T09:24:17;8.43;;;1.88;;
11305;SDS011;5708;50.660;6.778;2023-12-28T09:26:43;6.70;;;1.48;;
11305;SDS011;5708;50.660;6.778;2023-12-28T09:29:09;6.53;;;1.58;;
11305;SDS011;5708;50.660;6.778;2023-12-28T09:31:34;8.45;;;1.80;;
11305;SDS011;5708;50.660;6.778;2023-12-28T09:33:59;7.10;;;1.48;;
11305;SDS011;5708;50.660;6.778;2023-12-28T09:36:25;7.10;;;1.80;;
11305;SDS011;5708;50.660;6.778;2023-12-28T09:38:50;7.55;;;2.45;;
11305;SDS011;5708;50.660;6.778;2023-12-28T09:41:16;8.70;;;2.47;;
11305;SDS011;5708;50.660;6.778;2023-12-28T09:43:49;10.02;;;2.50;;
11305;SDS011;5708;50.660;6.778;2023-12-28T09:46:19;8.00;;;2.65;;
11305;SDS011;5708;50.660;6.778;2023-12-28T09:48:45;8.55;;;1.88;;
11305;SDS011;5708;50.660;6.778;2023-12-28T09:51:11;9.95;;;1.90;;
11305;SDS011;5708;50.660;6.778;2023-12-28T09:53:37;9.02;;;2.15;;
11305;SDS011;5708;50.660;6.778;2023-12-28T09:56:02;8.82;;;1.75;;
11305;SDS011;5708;50.660;6.778;2023-12-28T09:58:28;4.97;;;1.60;;
11305;SDS011;5708;50.660;6.778;2023-12-28T10:00:56;5.63;;;1.50;;
11305;SDS011;5708;50.660;6.778;2023-12-28T10:03:22;6.35;;;1.50;;
11305;SDS011;5708;50.660;6.778;2023-12-28T10:05:47;6.20;;;1.73;;
11305;SDS011;5708;50.660;6.778;2023-12-28T10:08:13;5.25;;;1.20;;
11305;SDS011;5708;50.660;6.778;2023-12-28T10:10:40;8.60;;;1.40;;
11305;SDS011;5708;50.660;6.778;2023-12-28T10:13:06;9.57;;;2.00;;
11305;SDS011;5708;50.660;6.778;2023-12-28T10:15:32;7.90;;;1.70;;
11305;SDS011;5708;50.660;6.778;2023-12-28T10:17:58;8.07;;;1.60;;
11305;SDS011;5708;50.660;6.778;2023-12-28T10:20:27;7.88;;;1.70;;
11305;SDS011;5708;50.660;6.778;2023-12-28T10:22:53;7.47;;;1.83;;
11305;SDS011;5708;50.660;6.778;2023-12-28T10:25:18;8.88;;;1.52;;
11305;SDS011;5708;50.660;6.778;2023-12-28T10:27:44;7.75;;;1.90;;
11305;SDS011;5708;50.660;6.778;2023-12-28T10:30:09;5.10;;;1.70;;
11305;SDS011;5708;50.660;6.778;2023-12-28T10:32:35;6.00;;;1.65;;
11305;SDS011;5708;50.660;6.778;2023-12-28T10:35:04;8.02;;;1.45;;
11305;SDS011;5708;50.660;6.778;2023-12-28T10:37:30;5.20;;;1.42;;
11305;SDS011;5708;50.660;6.778;2023-12-28T10:39:57;6.68;;;1.60;;
11305;SDS011;5708;50.660;6.778;2023-12-28T10:42:28;10.75;;;1.73;;
11305;SDS011;5708;50.660;6.778;2023-12-28T10:45:06;7.75;;;1.73;;
11305;SDS011;5708;50.660;6.778;2023-12-28T10:47:39;7.07;;;1.55;;
11305;SDS011;5708;50.660;6.778;2023-12-28T10:50:08;9.57;;;1.98;;
11305;SDS011;5708;50.660;6.778;2023-12-28T10:52:36;8.70;;;1.90;;
11305;SDS011;5708;50.660;6.778;2023-12-28T10:57:41;8.43;;;1.75;;
11305;SDS011;5708;50.660;6.778;2023-12-28T11:00:16;5.60;;;1.48;;
11305;SDS011;5708;50.660;6.778;2023-12-28T11:02:53;7.47;;;1.67;;
11305;SDS011;5708;50.660;6.778;2023-12-28T11:05:22;7.35;;;1.83;;
11305;SDS011;5708;50.660;6.778;2023-12-28T11:07:48;6.72;;;1.73;;
11305;SDS011;5708;50.660;6.778;2023-12-28T11:10:15;7.07;;;1.50;;
11305;SDS011;5708;50.660;6.778;2023-12-28T11:12:41;5.53;;;1.50;;
11305;SDS011;5708;50.660;6.778;2023-12-28T11:15:08;8.25;;;1.70;;
11305;SDS011;5708;50.660;6.778;2023-12-28T11:17:35;5.85;;;1.70;;
11305;SDS011;5708;50.660;6.778;2023-12-28T11:20:01;7.28;;;2.22;;
11305;SDS011;5708;50.660;6.778;2023-12-28T11:22:29;6.15;;;2.00;;
11305;SDS011;5708;50.660;6.778;2023-12-28T11:24:55;10.85;;;1.73;;
11305;SDS011;5708;50.660;6.778;2023-12-28T11:27:21;7.13;;;1.40;;
11305;SDS011;5708;50.660;6.778;2023-12-28T11:29:49;7.78;;;1.83;;
11305;SDS011;5708;50.660;6.778;2023-12-28T11:32:17;6.88;;;1.55;;
11305;SDS011;5708;50.660;6.778;2023-12-28T11:34:44;7.43;;;1.63;;
11305;SDS011;5708;50.660;6.778;2023-12-28T11:37:13;9.35;;;1.48;;
11305;SDS011;5708;50.660;6.778;2023-12-28T11:39:44;7.72;;;1.45;;
11305;SDS011;5708;50.660;6.778;2023-12-28T11:42:10;9.38;;;1.75;;
11305;SDS011;5708;50.660;6.778;2023-12-28T11:44:42;5.40;;;1.67;;
11305;SDS011;5708;50.660;6.778;2023-12-28T11:47:21;7.35;;;1.90;;
11305;SDS011;5708;50.660;6.778;2023-12-28T11:49:48;8.32;;;1.55;;
11305;SDS011;5708;50.660;6.778;2023-12-28T11:52:26;7.32;;;1.40;;
11305;SDS011;5708;50.660;6.778;2023-12-28T11:54:56;5.25;;;1.50;;
11305;SDS011;5708;50.660;6.778;2023-12-28T11:57:24;7.97;;;1.45;;
11305;SDS011;5708;50.660;6.778;2023-12-28T11:59:53;5.70;;;1.48;;
11305;SDS011;5708;50.660;6.778;2023-12-28T12:02:20;6.25;;;1.30;;
11305;SDS011;5708;50.660;6.778;2023-12-28T12:04:45;11.05;;;1.73;;
11305;SDS011;5708;50.660;6.778;2023-12-28T12:07:11;6.50;;;1.48;;
11305;SDS011;5708;50.660;6.778;2023-12-28T12:09:36;8.20;;;1.27;;
11305;SDS011;5708;50.660;6.778;2023-12-28T12:12:02;7.35;;;1.48;;
11305;SDS011;5708;50.660;6.778;2023-12-28T12:14:28;9.55;;;1.48;;
11305;SDS011;5708;50.660;6.778;2023-12-28T12:16:54;9.35;;;1.60;;
11305;SDS011;5708;50.660;6.778;2023-12-28T12:19:23;6.78;;;1.58;;
11305;SDS011;5708;50.660;6.778;2023-12-28T12:21:51;6.05;;;1.45;;
11305;SDS011;5708;50.660;6.778;2023-12-28T12:24:17;10.32;;;2.45;;
11305;SDS011;5708;50.660;6.778;2023-12-28T12:26:43;11.32;;;2.38;;
11305;SDS011;5708;50.660;6.778;2023-12-28T12:29:10;6.13;;;1.60;;
11305;SDS011;5708;50.660;6.778;2023-12-28T12:31:35;10.60;;;1.75;;
11305;SDS011;5708;50.660;6.778;2023-12-28T12:34:02;4.78;;;1.10;;
11305;SDS011;5708;50.660;6.778;2023-12-28T12:36:28;6.18;;;1.38;;
11305;SDS011;5708;50.660;6.778;2023-12-28T12:38:53;6.15;;;1.33;;
11305;SDS011;5708;50.660;6.778;2023-12-28T12:41:19;8.48;;;1.42;;
11305;SDS011;5708;50.660;6.778;2023-12-28T12:43:44;7.13;;;1.30;;
11305;SDS011;5708;50.660;6.778;2023-12-28T12:46:09;6.47;;;1.60;;
11305;SDS011;5708;50.660;6.778;2023-12-28T12:48:35;4.45;;;1.17;;
11305;SDS011;5708;50.660;6.778;2023-12-28T12:51:04;10.82;;;1.50;;
11305;SDS011;5708;50.660;6.778;2023-12-28T12:53:33;6.70;;;1.30;;
11305;SDS011;5708;50.660;6.778;2023-12-28T12:56:05;7.15;;;1.42;;
11305;SDS011;5708;50.660;6.778;2023-12-28T12:58:30;10.38;;;3.10;;
11305;SDS011;5708;50.660;6.778;2023-12-28T13:00:56;9.55;;;2.60;;
11305;SDS011;5708;50.660;6.778;2023-12-28T13:03:22;10.13;;;1.58;;
11305;SDS011;5708;50.660;6.778;2023-12-28T13:05:47;9.05;;;1.55;;
11305;SDS011;5708;50.660;6.778;2023-12-28T13:08:13;10.52;;;1.45;;
11305;SDS011;5708;50.660;6.778;2023-12-28T13:10:39;7.68;;;1.58;;
11305;SDS011;5708;50.660;6.778;2023-12-28T13:13:08;9.88;;;1.52;;
11305;SDS011;5708;50.660;6.778;2023-12-28T13:15:33;6.85;;;1.23;;
11305;SDS011;5708;50.660;6.778;2023-12-28T13:17:59;6.13;;;1.35;;
11305;SDS011;5708;50.660;6.778;2023-12-28T13:20:24;6.90;;;1.20;;
11305;SDS011;5708;50.660;6.778;2023-12-28T13:22:50;6.78;;;1.55;;
11305;SDS011;5708;50.660;6.778;2023-12-28T13:25:15;6.60;;;1.45;;
11305;SDS011;5708;50.660;6.778;2023-12-28T13:27:41;7.68;;;1.23;;
11305;SDS011;5708;50.660;6.778;2023-12-28T13:30:07;6.82;;;1.55;;
11305;SDS011;5708;50.660;6.778;2023-12-28T13:32:32;8.75;;;1.42;;
11305;SDS011;5708;50.660;6.778;2023-12-28T13:34:58;7.63;;;1.17;;
11305;SDS011;5708;50.660;6.778;2023-12-28T13:37:23;10.57;;;1.58;;
11305;SDS011;5708;50.660;6.778;2023-12-28T13:39:49;7.65;;;1.55;;
11305;SDS011;5708;50.660;6.778;2023-12-28T13:42:14;9.18;;;1.50;;
11305;SDS011;5708;50.660;6.778;2023-12-28T13:44:39;9.90;;;1.58;;
11305;SDS011;5708;50.660;6.778;2023-12-28T13:47:05;9.02;;;1.63;;
11305;SDS011;5708;50.660;6.778;2023-12-28T13:49:31;8.65;;;2.03;;
11305;SDS011;5708;50.660;6.778;2023-12-28T13:51:56;6.70;;;1.40;;
11305;SDS011;5708;50.660;6.778;2023-12-28T13:54:22;9.73;;;1.50;;
11305;SDS011;5708;50.660;6.778;2023-12-28T13:56:47;8.23;;;1.30;;
11305;SDS011;5708;50.660;6.778;2023-12-28T13:59:13;6.75;;;1.50;;
11305;SDS011;5708;50.660;6.778;2023-12-28T14:01:39;6.30;;;1.38;;
11305;SDS011;5708;50.660;6.778;2023-12-28T14:04:04;8.98;;;1.40;;
11305;SDS011;5708;50.660;6.778;2023-12-28T14:06:29;9.82;;;1.70;;
11305;SDS011;5708;50.660;6.778;2023-12-28T14:08:55;7.07;;;1.50;;
11305;SDS011;5708;50.660;6.778;2023-12-28T14:11:21;7.45;;;1.10;;
11305;SDS011;5708;50.660;6.778;2023-12-28T14:13:47;7.82;;;1.42;;
11305;SDS011;5708;50.660;6.778;2023-12-28T14:16:12;5.63;;;1.20;;
11305;SDS011;5708;50.660;6.778;2023-12-28T14:18:37;7.82;;;1.50;;
11305;SDS011;5708;50.660;6.778;2023-12-28T14:21:06;5.25;;;1.30;;
11305;SDS011;5708;50.660;6.778;2023-12-28T14:23:32;6.90;;;1.30;;
11305;SDS011;5708;50.660;6.778;2023-12-28T14:25:58;8.85;;;1.52;;
11305;SDS011;5708;50.660;6.778;2023-12-28T14:28:23;7.97;;;1.75;;
11305;SDS011;5708;50.660;6.778;2023-12-28T14:30:49;6.38;;;1.13;;
11305;SDS011;5708;50.660;6.778;2023-12-28T14:33:15;9.18;;;1.45;;
11305;SDS011;5708;50.660;6.778;2023-12-28T14:35:40;5.72;;;1.77;;
11305;SDS011;5708;50.660;6.778;2023-12-28T14:38:06;7.85;;;1.88;;
11305;SDS011;5708;50.660;6.778;2023-12-28T14:40:33;8.20;;;1.15;;
11305;SDS011;5708;50.660;6.778;2023-12-28T14:42:58;8.35;;;1.95;;
11305;SDS011;5708;50.660;6.778;2023-12-28T14:45:23;5.85;;;1.20;;
11305;SDS011;5708;50.660;6.778;2023-12-28T14:47:49;9.10;;;1.67;;
11305;SDS011;5708;50.660;6.778;2023-12-28T14:50:14;4.18;;;1.30;;
11305;SDS011;5708;50.660;6.778;2023-12-28T14:52:40;6.30;;;1.13;;
11305;SDS011;5708;50.660;6.778;2023-12-28T14:55:07;7.85;;;1.42;;
11305;SDS011;5708;50.660;6.778;2023-12-28T14:57:33;6.68;;;1.75;;
11305;SDS011;5708;50.660;6.778;2023-12-28T14:59:59;9.07;;;1.30;;
11305;SDS011;5708;50.660;6.778;2023-12-28T15:02:24;5.88;;;1.40;;
11305;SDS011;5708;50.660;6.778;2023-12-28T15:04:49;9.88;;;1.67;;